createdAt,value
2023-04-06T00:01:46.860Z,99.90
2023-04-06T00:04:14.025Z,99.90
2023-04-06T00:06:41.494Z,99.90
2023-04-06T00:09:09.263Z,99.90
2023-04-06T00:11:36.503Z,99.90
2023-04-06T00:14:03.643Z,99.90
2023-04-06T00:16:30.842Z,99.90
2023-04-06T00:18:57.976Z,99.90
2023-04-06T00:21:26.098Z,99.90
2023-04-06T00:23:53.420Z,99.90
2023-04-06T00:26:21.004Z,99.90
2023-04-06T00:28:48.183Z,99.90
2023-04-06T00:31:15.578Z,99.90
2023-04-06T00:33:42.734Z,99.90
2023-04-06T00:36:10.058Z,99.90
2023-04-06T00:38:37.293Z,99.90
2023-04-06T00:41:05.599Z,99.90
2023-04-06T00:43:34.056Z,99.90
2023-04-06T00:46:01.287Z,99.90
2023-04-06T00:48:28.446Z,99.90
2023-04-06T00:50:55.596Z,99.90
2023-04-06T00:53:22.812Z,99.90
2023-04-06T00:55:49.930Z,99.90
2023-04-06T00:58:17.210Z,99.90
2023-04-06T01:00:44.305Z,99.90
2023-04-06T01:03:11.473Z,99.90
2023-04-06T01:05:41.697Z,99.90
2023-04-06T01:08:09.273Z,99.90
2023-04-06T01:10:36.551Z,99.90
2023-04-06T01:13:03.764Z,99.90
2023-04-06T01:15:31.438Z,99.90
2023-04-06T01:17:58.557Z,99.90
2023-04-06T01:20:25.823Z,99.90
2023-04-06T01:22:53.032Z,99.90
2023-04-06T01:25:20.499Z,99.90
2023-04-06T01:27:47.866Z,99.90
2023-04-06T01:30:15.110Z,99.90
2023-04-06T01:32:42.325Z,99.90
2023-04-06T01:35:10.164Z,99.90
2023-04-06T01:37:38.006Z,99.90
2023-04-06T01:40:06.322Z,99.90
2023-04-06T01:42:33.528Z,99.90
2023-04-06T01:45:00.910Z,99.90
2023-04-06T01:47:28.158Z,99.90
2023-04-06T01:49:55.284Z,99.90
2023-04-06T01:52:22.440Z,99.90
2023-04-06T01:54:49.610Z,99.90
2023-04-06T01:57:16.866Z,99.90
2023-04-06T01:59:44.166Z,99.90
2023-04-06T02:02:11.517Z,99.90
2023-04-06T02:04:38.880Z,99.90
2023-04-06T02:07:06.169Z,99.90
2023-04-06T02:09:33.307Z,99.90
2023-04-06T02:12:02.371Z,99.90
2023-04-06T02:14:29.598Z,99.90
2023-04-06T02:16:56.815Z,99.90
2023-04-06T02:19:23.977Z,99.90
2023-04-06T02:21:51.620Z,99.90
2023-04-06T02:24:18.752Z,99.90
2023-04-06T02:26:46.023Z,99.90
2023-04-06T02:29:13.247Z,99.90
2023-04-06T02:31:40.430Z,99.90
2023-04-06T02:34:08.940Z,99.90
2023-04-06T02:36:36.014Z,99.90
2023-04-06T02:39:03.152Z,99.90
2023-04-06T02:41:30.705Z,99.90
2023-04-06T02:43:57.968Z,99.90
2023-04-06T02:46:25.310Z,99.90
2023-04-06T02:48:52.554Z,99.90
2023-04-06T02:51:19.720Z,99.90
2023-04-06T02:53:46.834Z,99.90
2023-04-06T02:56:14.008Z,99.90
2023-04-06T02:58:41.584Z,99.90
2023-04-06T03:01:08.727Z,99.90
2023-04-06T03:03:36.512Z,99.90
2023-04-06T03:06:04.244Z,99.90
2023-04-06T03:08:31.492Z,99.90
2023-04-06T03:10:58.688Z,99.90
2023-04-06T03:13:25.753Z,99.90
2023-04-06T03:15:52.880Z,99.90
2023-04-06T03:18:25.202Z,99.90
2023-04-06T03:20:55.089Z,99.90
2023-04-06T03:23:24.025Z,99.90
2023-04-06T03:25:51.342Z,99.90
2023-04-06T03:28:18.498Z,99.90
2023-04-06T03:30:46.723Z,99.90
2023-04-06T03:33:13.870Z,99.90
2023-04-06T03:35:41.038Z,99.90
2023-04-06T03:38:08.120Z,99.90
2023-04-06T03:40:35.260Z,99.90
2023-04-06T03:43:02.846Z,99.90
2023-04-06T03:45:29.914Z,99.90
2023-04-06T03:47:57.121Z,99.90
2023-04-06T03:50:24.256Z,99.90
2023-04-06T03:52:51.756Z,99.90
2023-04-06T03:55:18.887Z,99.90
2023-04-06T03:57:46.208Z,99.90
2023-04-06T04:00:14.157Z,99.90
2023-04-06T04:02:41.551Z,99.90
2023-04-06T04:05:09.281Z,99.90
2023-04-06T04:07:36.398Z,99.90
2023-04-06T04:10:04.095Z,99.90
2023-04-06T04:12:31.240Z,99.90
2023-04-06T04:14:58.316Z,99.90
2023-04-06T04:17:26.229Z,99.90
2023-04-06T04:19:53.372Z,99.90
2023-04-06T04:22:20.445Z,99.90
2023-04-06T04:24:47.601Z,99.90
2023-04-06T04:27:14.667Z,99.90
2023-04-06T04:29:41.753Z,99.90
2023-04-06T04:32:09.180Z,99.90
2023-04-06T04:34:36.606Z,99.90
2023-04-06T04:37:03.775Z,99.90
2023-04-06T04:39:31.104Z,99.90
2023-04-06T04:41:58.506Z,99.90
2023-04-06T04:44:25.939Z,99.90
2023-04-06T04:46:53.776Z,99.90
2023-04-06T04:49:20.995Z,99.90
2023-04-06T04:51:48.074Z,99.90
2023-04-06T04:54:15.269Z,99.90
2023-04-06T04:56:42.326Z,99.90
2023-04-06T04:59:09.667Z,99.90
2023-04-06T05:01:47.689Z,99.90
2023-04-06T05:04:21.857Z,99.90
2023-04-06T05:06:49.045Z,99.90
2023-04-06T05:09:16.266Z,99.90
2023-04-06T05:11:43.390Z,99.90
2023-04-06T05:14:11.087Z,99.90
2023-04-06T05:16:38.316Z,99.90
2023-04-06T05:19:05.432Z,99.90
2023-04-06T05:21:32.854Z,99.90
2023-04-06T05:23:59.917Z,99.90
2023-04-06T05:26:27.023Z,99.90
2023-04-06T05:28:55.899Z,99.90
2023-04-06T05:31:23.203Z,99.90
2023-04-06T05:33:50.849Z,99.90
2023-04-06T05:36:17.969Z,99.90
2023-04-06T05:38:45.173Z,99.90
2023-04-06T05:41:12.356Z,99.90
2023-04-06T05:43:39.511Z,99.90
2023-04-06T05:46:06.672Z,99.90
2023-04-06T05:48:33.974Z,99.90
2023-04-06T05:51:03.225Z,99.90
2023-04-06T05:53:30.322Z,99.90
2023-04-06T05:55:57.415Z,99.90
2023-04-06T05:58:24.668Z,99.90
2023-04-06T06:00:51.780Z,99.90
2023-04-06T06:03:18.909Z,99.90
2023-04-06T06:05:46.199Z,99.90
2023-04-06T06:08:13.349Z,99.90
2023-04-06T06:10:41.369Z,99.90
2023-04-06T06:13:08.624Z,99.90
2023-04-06T06:15:35.864Z,99.90
2023-04-06T06:18:03.032Z,99.90
2023-04-06T06:20:30.205Z,99.90
2023-04-06T06:22:57.344Z,99.90
2023-04-06T06:25:25.202Z,99.90
2023-04-06T06:27:52.346Z,99.90
2023-04-06T06:30:20.991Z,99.90
2023-04-06T06:32:51.873Z,99.90
2023-04-06T06:35:19.374Z,99.90
2023-04-06T06:37:46.551Z,99.90
2023-04-06T06:40:18.974Z,99.90
2023-04-06T06:42:46.348Z,99.90
2023-04-06T06:45:13.451Z,99.90
2023-04-06T06:47:42.341Z,99.90
2023-04-06T06:50:09.798Z,99.90
2023-04-06T06:52:37.004Z,99.90
2023-04-06T06:55:04.384Z,99.90
2023-04-06T06:57:31.784Z,99.90
2023-04-06T07:00:00.993Z,99.90
2023-04-06T07:02:28.209Z,99.90
2023-04-06T07:04:55.568Z,99.90
2023-04-06T07:07:22.717Z,99.90
2023-04-06T07:09:49.885Z,99.90
2023-04-06T07:12:17.613Z,99.90
2023-04-06T07:14:44.777Z,99.90
2023-04-06T07:17:12.496Z,99.90
2023-04-06T07:19:40.249Z,99.90
2023-04-06T07:22:07.511Z,99.90
2023-04-06T07:24:34.682Z,99.90
2023-04-06T07:27:01.979Z,99.90
2023-04-06T07:29:29.263Z,99.90
2023-04-06T07:31:57.041Z,99.90
2023-04-06T07:34:24.359Z,99.90
2023-04-06T07:36:53.839Z,99.90
2023-04-06T07:39:21.505Z,99.90
2023-04-06T07:41:48.824Z,99.90
2023-04-06T07:44:16.138Z,99.90
2023-04-06T07:46:43.282Z,99.90
2023-04-06T07:49:10.384Z,99.90
2023-04-06T07:51:39.609Z,99.90
2023-04-06T07:54:07.590Z,99.90
2023-04-06T07:56:34.893Z,99.90
2023-04-06T07:59:04.125Z,99.90
2023-04-06T08:01:31.660Z,99.90
2023-04-06T08:03:59.513Z,99.90
2023-04-06T08:06:27.357Z,99.90
2023-04-06T08:08:55.247Z,99.90
2023-04-06T08:11:22.521Z,99.90
2023-04-06T08:13:49.674Z,99.90
2023-04-06T08:16:17.174Z,99.90
2023-04-06T08:18:44.407Z,99.90
2023-04-06T08:21:11.572Z,99.90
2023-04-06T08:23:38.886Z,99.90
2023-04-06T08:26:06.277Z,99.90
2023-04-06T08:28:35.451Z,99.90
2023-04-06T08:31:07.048Z,99.90
2023-04-06T08:33:40.168Z,99.90
2023-04-06T08:36:13.337Z,99.90
2023-04-06T08:38:43.909Z,99.90
2023-04-06T08:41:15.271Z,99.90
2023-04-06T08:43:58.924Z,99.90
2023-04-06T08:46:33.034Z,99.90
2023-04-06T08:49:03.208Z,99.90
2023-04-06T08:51:32.117Z,99.90
2023-04-06T08:54:01.429Z,99.90
2023-04-06T08:56:29.916Z,99.90
2023-04-06T08:58:59.297Z,99.90
2023-04-06T09:01:30.655Z,99.90
2023-04-06T09:04:01.489Z,99.90
2023-04-06T09:06:28.977Z,99.90
2023-04-06T09:08:56.384Z,99.90
2023-04-06T09:11:25.135Z,99.90
2023-04-06T09:13:56.055Z,99.90
2023-04-06T09:16:24.282Z,99.90
2023-04-06T09:18:52.100Z,99.90
2023-04-06T09:21:23.814Z,99.90
2023-04-06T09:24:03.792Z,99.90
2023-04-06T09:26:31.709Z,99.90
2023-04-06T09:29:04.186Z,99.90
2023-04-06T09:31:35.608Z,99.90
2023-04-06T09:34:03.580Z,99.70
2023-04-06T09:36:43.007Z,99.00
2023-04-06T09:39:10.202Z,99.80
2023-04-06T09:41:38.048Z,96.40
2023-04-06T09:44:12.583Z,98.40
2023-04-06T09:46:55.050Z,95.90
2023-04-06T09:49:28.668Z,95.70
2023-04-06T09:52:05.802Z,93.80
2023-04-06T09:54:33.815Z,99.40
2023-04-06T09:57:33.915Z,93.10
2023-04-06T10:00:12.502Z,95.20
2023-04-06T10:03:08.663Z,92.90
2023-04-06T10:06:03.109Z,91.50
2023-04-06T10:08:33.040Z,88.90
2023-04-06T10:11:02.003Z,91.20
2023-04-06T10:13:29.471Z,88.90
2023-04-06T10:15:56.818Z,90.00
2023-04-06T10:18:24.467Z,89.70
2023-04-06T10:21:01.179Z,92.10
2023-04-06T10:23:36.888Z,87.00
2023-04-06T10:26:05.103Z,85.00
2023-04-06T10:28:37.206Z,84.70
2023-04-06T10:31:07.856Z,83.80
2023-04-06T10:33:35.747Z,84.30
2023-04-06T10:36:15.729Z,81.60
2023-04-06T10:38:43.628Z,84.30
2023-04-06T10:41:12.845Z,83.40
2023-04-06T10:43:43.186Z,81.90
2023-04-06T10:46:11.664Z,83.00
2023-04-06T10:48:44.345Z,85.50
2023-04-06T10:51:14.600Z,86.60
2023-04-06T10:53:45.503Z,85.60
2023-04-06T10:56:18.164Z,85.50
2023-04-06T10:58:54.173Z,85.30
2023-04-06T11:01:23.341Z,83.60
2023-04-06T11:03:54.570Z,85.50
2023-04-06T11:06:24.262Z,90.80
2023-04-06T11:08:52.622Z,83.90
2023-04-06T11:11:22.239Z,87.80
2023-04-06T11:14:02.272Z,79.10
2023-04-06T11:16:32.467Z,82.50
2023-04-06T11:19:10.669Z,76.70
2023-04-06T11:21:49.066Z,77.10
2023-04-06T11:24:22.566Z,77.80
2023-04-06T11:26:59.569Z,75.20
2023-04-06T11:29:31.917Z,74.00
2023-04-06T11:32:07.521Z,70.40
2023-04-06T11:34:40.065Z,71.10
2023-04-06T11:37:13.333Z,69.90
2023-04-06T11:39:51.863Z,69.40
2023-04-06T11:42:31.045Z,70.90
2023-04-06T11:44:59.704Z,69.70
2023-04-06T11:47:35.635Z,69.90
2023-04-06T11:50:14.601Z,67.60
2023-04-06T11:52:44.049Z,68.70
2023-04-06T11:55:19.763Z,65.90
2023-04-06T11:57:47.017Z,70.40
2023-04-06T12:00:14.904Z,65.10
2023-04-06T12:02:52.113Z,67.20
2023-04-06T12:05:20.495Z,63.00
2023-04-06T12:07:52.573Z,67.10
2023-04-06T12:10:19.787Z,63.90
2023-04-06T12:12:50.890Z,63.30
2023-04-06T12:15:18.109Z,66.40
2023-04-06T12:17:45.285Z,61.80
2023-04-06T12:20:22.408Z,64.40
2023-04-06T12:22:52.843Z,62.30
2023-04-06T12:25:20.092Z,64.10
2023-04-06T12:27:47.382Z,58.30
2023-04-06T12:30:14.940Z,59.80
2023-04-06T12:32:43.273Z,58.20
2023-04-06T12:35:12.716Z,57.00
2023-04-06T12:37:40.024Z,58.30
2023-04-06T12:40:08.224Z,57.50
2023-04-06T12:42:35.729Z,59.30
2023-04-06T12:45:03.598Z,57.90
2023-04-06T12:47:30.681Z,60.90
2023-04-06T12:49:57.821Z,60.50
2023-04-06T12:52:25.056Z,58.80
2023-04-06T12:54:52.517Z,58.50
2023-04-06T12:57:20.003Z,57.60
2023-04-06T12:59:49.796Z,59.10
2023-04-06T13:02:17.038Z,59.30
2023-04-06T13:04:44.381Z,58.20
2023-04-06T13:07:11.509Z,57.10
2023-04-06T13:09:38.646Z,54.50
2023-04-06T13:12:06.526Z,54.60
2023-04-06T13:14:33.739Z,55.80
2023-04-06T13:17:01.422Z,57.60
2023-04-06T13:19:29.280Z,56.60
2023-04-06T13:21:56.664Z,54.60
2023-04-06T13:24:25.841Z,52.00
2023-04-06T13:26:52.995Z,52.10
2023-04-06T13:29:20.150Z,56.20
2023-04-06T13:31:47.513Z,57.30
2023-04-06T13:34:14.706Z,55.70
2023-04-06T13:36:42.936Z,54.80
2023-04-06T13:39:10.370Z,52.70
2023-04-06T13:41:37.576Z,53.00
2023-04-06T13:44:04.903Z,53.70
2023-04-06T13:46:31.995Z,52.10
2023-04-06T13:48:59.156Z,53.60
2023-04-06T13:51:27.638Z,52.60
2023-04-06T13:53:54.841Z,52.30
2023-04-06T13:56:22.143Z,52.70
2023-04-06T13:58:49.364Z,53.80
2023-04-06T14:01:16.724Z,52.30
2023-04-06T14:03:48.429Z,54.80
2023-04-06T14:06:29.694Z,54.20
2023-04-06T14:08:58.253Z,54.70
2023-04-06T14:11:25.586Z,56.10
2023-04-06T14:13:53.324Z,55.60
2023-04-06T14:16:22.597Z,52.90
2023-04-06T14:18:49.766Z,54.40
2023-04-06T14:21:17.352Z,55.60
2023-04-06T14:23:44.593Z,54.20
2023-04-06T14:26:12.663Z,54.50
2023-04-06T14:28:39.749Z,52.80
2023-04-06T14:31:17.448Z,55.70
2023-04-06T14:33:45.195Z,57.20
2023-04-06T14:36:12.535Z,54.80
2023-04-06T14:38:40.572Z,56.60
2023-04-06T14:41:09.484Z,56.50
2023-04-06T14:43:36.597Z,58.00
2023-04-06T14:46:04.018Z,56.30
2023-04-06T14:48:31.351Z,57.60
2023-04-06T14:50:58.906Z,58.30
2023-04-06T14:53:26.342Z,57.80
2023-04-06T14:55:55.693Z,58.60
2023-04-06T14:58:24.030Z,56.90
2023-04-06T15:00:59.034Z,59.70
2023-04-06T15:03:30.757Z,58.80
2023-04-06T15:05:58.225Z,59.10
2023-04-06T15:08:26.673Z,59.60
2023-04-06T15:10:55.687Z,59.50
2023-04-06T15:13:23.138Z,61.40
2023-04-06T15:15:52.602Z,60.50
2023-04-06T15:18:19.956Z,61.60
2023-04-06T15:20:47.064Z,65.00
2023-04-06T15:23:15.163Z,64.20
2023-04-06T15:25:42.512Z,64.10
2023-04-06T15:28:09.705Z,62.60
2023-04-06T15:30:37.908Z,60.80
2023-04-06T15:33:07.897Z,61.90
2023-04-06T15:35:40.774Z,63.30
2023-04-06T15:38:08.633Z,62.10
2023-04-06T15:40:44.044Z,58.70
2023-04-06T15:43:11.547Z,61.00
2023-04-06T15:45:38.917Z,60.90
2023-04-06T15:48:07.357Z,60.10
2023-04-06T15:50:35.700Z,60.00
2023-04-06T15:53:02.819Z,59.20
2023-04-06T15:55:29.922Z,61.00
2023-04-06T15:57:56.989Z,61.60
2023-04-06T16:00:25.848Z,62.00
2023-04-06T16:02:53.101Z,61.50
2023-04-06T16:05:20.392Z,62.50
2023-04-06T16:07:47.503Z,61.90
2023-04-06T16:10:14.606Z,63.70
2023-04-06T16:12:42.571Z,63.90
2023-04-06T16:15:10.181Z,62.40
2023-04-06T16:17:37.398Z,63.30
2023-04-06T16:20:05.189Z,62.20
2023-04-06T16:22:32.313Z,64.40
2023-04-06T16:24:59.555Z,66.00
2023-04-06T16:27:26.788Z,63.00
2023-04-06T16:29:53.875Z,62.70
2023-04-06T16:32:21.033Z,65.40
2023-04-06T16:34:48.128Z,63.10
2023-04-06T16:37:16.381Z,63.20
2023-04-06T16:39:43.488Z,62.90
2023-04-06T16:42:10.670Z,65.40
2023-04-06T16:44:37.770Z,64.20
2023-04-06T16:47:05.267Z,66.30
2023-04-06T16:49:32.345Z,64.00
2023-04-06T16:52:02.959Z,64.80
2023-04-06T16:54:30.100Z,66.20
2023-04-06T16:56:57.822Z,67.70
2023-04-06T16:59:24.896Z,69.30
2023-04-06T17:01:52.132Z,66.80
2023-04-06T17:04:19.363Z,67.80
2023-04-06T17:06:46.481Z,69.50
2023-04-06T17:09:13.801Z,68.20
2023-04-06T17:11:46.709Z,69.30
2023-04-06T17:14:15.277Z,70.00
2023-04-06T17:16:42.493Z,69.00
2023-04-06T17:19:09.679Z,70.30
2023-04-06T17:21:36.846Z,69.50
2023-04-06T17:24:04.177Z,71.30
2023-04-06T17:26:31.330Z,72.10
2023-04-06T17:28:58.436Z,72.80
2023-04-06T17:31:25.710Z,72.20
2023-04-06T17:33:53.599Z,73.00
2023-04-06T17:36:22.002Z,73.80
2023-04-06T17:38:50.224Z,73.40
2023-04-06T17:41:17.525Z,74.70
2023-04-06T17:43:45.392Z,74.70
2023-04-06T17:46:13.111Z,75.80
2023-04-06T17:48:40.687Z,76.90
2023-04-06T17:51:08.092Z,78.20
2023-04-06T17:53:37.104Z,79.00
2023-04-06T17:56:05.203Z,79.50
2023-04-06T17:58:34.002Z,80.80
2023-04-06T18:01:10.829Z,82.00
2023-04-06T18:03:38.591Z,82.30
2023-04-06T18:06:16.705Z,84.50
2023-04-06T18:08:44.120Z,83.60
2023-04-06T18:11:21.963Z,84.30
2023-04-06T18:13:49.902Z,86.00
2023-04-06T18:16:21.194Z,86.50
2023-04-06T18:18:49.051Z,88.80
2023-04-06T18:21:16.260Z,88.50
2023-04-06T18:23:43.365Z,90.40
2023-04-06T18:26:18.167Z,90.40
2023-04-06T18:28:46.744Z,92.50
2023-04-06T18:31:14.377Z,93.60
2023-04-06T18:33:41.788Z,93.90
2023-04-06T18:36:10.572Z,95.10
2023-04-06T18:38:43.194Z,95.40
2023-04-06T18:41:10.486Z,97.20
2023-04-06T18:43:37.616Z,98.00
2023-04-06T18:46:05.051Z,99.50
2023-04-06T18:48:34.996Z,99.90
2023-04-06T18:51:03.859Z,99.90
2023-04-06T18:53:31.486Z,99.90
2023-04-06T18:55:59.299Z,99.90
2023-04-06T18:58:28.105Z,99.90
2023-04-06T19:00:59.903Z,99.90
2023-04-06T19:03:27.738Z,99.90
2023-04-06T19:05:55.115Z,99.90
2023-04-06T19:08:24.009Z,99.90
2023-04-06T19:10:51.232Z,99.90
2023-04-06T19:13:18.348Z,99.90
2023-04-06T19:15:45.603Z,99.90
2023-04-06T19:18:12.732Z,99.90
2023-04-06T19:20:39.877Z,99.90
2023-04-06T19:23:07.542Z,99.90
2023-04-06T19:25:36.056Z,99.90
2023-04-06T19:28:03.148Z,99.90
2023-04-06T19:30:30.611Z,99.90
2023-04-06T19:32:57.899Z,99.90
2023-04-06T19:35:24.966Z,99.90
2023-04-06T19:37:53.159Z,99.90
2023-04-06T19:40:21.454Z,99.90
2023-04-06T19:42:52.075Z,99.90
2023-04-06T19:45:20.872Z,99.90
2023-04-06T19:47:51.933Z,99.90
2023-04-06T19:50:19.235Z,99.90
2023-04-06T19:52:47.333Z,99.90
2023-04-06T19:55:15.171Z,99.90
2023-04-06T19:57:43.503Z,99.90
2023-04-06T20:00:11.581Z,99.90
2023-04-06T20:02:43.219Z,99.90
2023-04-06T20:05:10.489Z,99.90
2023-04-06T20:07:39.514Z,99.90
2023-04-06T20:10:08.783Z,99.90
2023-04-06T20:12:36.212Z,99.90
2023-04-06T20:15:03.954Z,99.90
2023-04-06T20:17:31.298Z,99.90
2023-04-06T20:19:58.450Z,99.90
2023-04-06T20:22:25.589Z,99.90
2023-04-06T20:24:52.858Z,99.90
2023-04-06T20:27:20.157Z,99.90
2023-04-06T20:29:47.282Z,99.90
2023-04-06T20:32:20.487Z,99.90
2023-04-06T20:34:49.112Z,99.90
2023-04-06T20:37:17.691Z,99.90
2023-04-06T20:39:45.033Z,99.90
2023-04-06T20:42:12.633Z,99.90
2023-04-06T20:44:39.677Z,99.90
2023-04-06T20:47:07.038Z,99.90
2023-04-06T20:49:34.065Z,99.90
2023-04-06T20:52:02.309Z,99.90
2023-04-06T20:54:29.829Z,99.90
2023-04-06T20:56:59.981Z,99.90
2023-04-06T20:59:28.163Z,99.90
2023-04-06T21:01:55.592Z,99.90
2023-04-06T21:04:23.334Z,99.90
2023-04-06T21:06:50.837Z,99.90
2023-04-06T21:09:20.237Z,99.90
2023-04-06T21:11:47.388Z,99.90
2023-04-06T21:14:14.868Z,99.90
2023-04-06T21:16:42.098Z,99.90
2023-04-06T21:19:09.196Z,99.90
2023-04-06T21:21:36.269Z,99.90
2023-04-06T21:24:03.566Z,99.90
2023-04-06T21:26:31.064Z,99.90
2023-04-06T21:28:58.241Z,99.90
2023-04-06T21:31:25.563Z,99.90
2023-04-06T21:33:52.651Z,99.90
2023-04-06T21:36:19.999Z,99.90
2023-04-06T21:38:47.184Z,99.90
2023-04-06T21:41:14.393Z,99.90
2023-04-06T21:43:42.622Z,99.90
2023-04-06T21:46:09.964Z,99.90
2023-04-06T21:48:37.060Z,99.90
2023-04-06T21:51:04.240Z,99.90
2023-04-06T21:53:31.353Z,99.90
2023-04-06T21:55:58.490Z,99.90
2023-04-06T21:58:25.592Z,99.90
2023-04-06T22:00:52.692Z,99.90
2023-04-06T22:03:20.051Z,99.90
2023-04-06T22:05:47.271Z,99.90
2023-04-06T22:08:25.576Z,99.90
2023-04-06T22:10:57.863Z,99.90
2023-04-06T22:13:29.335Z,99.90
2023-04-06T22:15:56.500Z,99.90
2023-04-06T22:18:23.751Z,99.90
2023-04-06T22:20:50.913Z,99.90
2023-04-06T22:23:18.005Z,99.90
2023-04-06T22:25:45.277Z,99.90
2023-04-06T22:28:12.361Z,99.90
2023-04-06T22:30:39.482Z,99.90
2023-04-06T22:33:06.790Z,99.90
2023-04-06T22:35:34.078Z,99.90
2023-04-06T22:38:01.208Z,99.90
2023-04-06T22:40:28.838Z,99.90
2023-04-06T22:42:56.037Z,99.90
2023-04-06T22:45:23.109Z,99.90
2023-04-06T22:47:50.258Z,99.90
2023-04-06T22:50:17.546Z,99.90
2023-04-06T22:52:47.036Z,99.90
2023-04-06T22:55:14.210Z,99.90
2023-04-06T22:57:41.355Z,99.90
2023-04-06T23:00:09.675Z,99.90
2023-04-06T23:02:36.935Z,99.90
2023-04-06T23:05:04.240Z,99.90
2023-04-06T23:07:32.881Z,99.90
2023-04-06T23:10:00.051Z,99.90
2023-04-06T23:12:27.585Z,99.90
2023-04-06T23:14:54.748Z,99.90
2023-04-06T23:17:22.046Z,99.90
2023-04-06T23:19:49.297Z,99.90
2023-04-06T23:22:16.353Z,99.90
2023-04-06T23:24:43.376Z,99.90
2023-04-06T23:27:10.513Z,99.90
2023-04-06T23:29:41.111Z,99.90
2023-04-06T23:32:08.307Z,99.90
2023-04-06T23:34:35.461Z,99.90
2023-04-06T23:37:03.243Z,99.90
2023-04-06T23:39:31.046Z,99.90
2023-04-06T23:41:58.388Z,99.90
2023-04-06T23:44:29.595Z,99.90
2023-04-06T23:46:57.136Z,99.90
2023-04-06T23:49:24.297Z,99.90
2023-04-06T23:51:51.814Z,99.90
2023-04-06T23:54:21.179Z,99.90
2023-04-06T23:56:48.476Z,99.90
2023-04-06T23:59:15.494Z,99.90
